Time;durP1;ratioP1;P1;durP2;ratioP2;P2;SDS_P1;SDS_P2;PMS_P1;PMS_P2;Temp;Humidity;BMP_temperature;BMP_pressure;BME280_temperature;BME280_humidity;BME280_pressure;Samples;Min_cycle;Max_cycle;Signal;HPM_P1;HPM_P2
2022/11/13 00:02:34;;;;;;;16.40;11.93;;;;;;;9.50;100.00;100818.44;1712532;83;21467;-59
2022/11/13 00:05:20;;;;;;;19.80;13.07;;;;;;;9.50;100.00;100818.44;1712435;83;21927;-59
2022/11/13 00:08:06;;;;;;;20.80;13.23;;;;;;;9.46;100.00;100817.14;1712666;83;21708;-59
2022/11/13 00:11:04;;;;;;;17.27;11.50;;;;;;;9.46;100.00;100826.24;1712630;83;21718;-59
2022/11/13 00:13:50;;;;;;;19.20;13.43;;;;;;;9.41;100.00;100828.53;1712505;83;21488;-60
2022/11/13 00:16:35;;;;;;;14.80;11.37;;;;;;;9.41;100.00;100828.53;1712613;83;21484;-58
2022/11/13 00:19:22;;;;;;;19.70;12.53;;;;;;;9.42;100.00;100838.45;1712470;83;21716;-67
2022/11/13 00:22:08;;;;;;;18.60;11.83;;;;;;;9.39;100.00;100830.95;1712617;83;21627;-59
2022/11/13 00:24:53;;;;;;;17.17;12.47;;;;;;;9.39;100.00;100830.95;1712549;83;22234;-59
2022/11/13 00:27:40;;;;;;;15.73;10.87;;;;;;;9.41;100.00;100845.44;1712661;83;21697;-59
2022/11/13 00:30:26;;;;;;;15.67;12.27;;;;;;;9.39;100.00;100847.37;1712535;83;21739;-59
2022/11/13 00:33:13;;;;;;;17.37;12.80;;;;;;;9.38;100.00;100841.85;1712336;83;21763;-59
2022/11/13 00:36:07;;;;;;;16.53;12.10;;;;;;;9.45;100.00;100844.64;1712458;83;22191;-61
2022/11/13 00:38:53;;;;;;;17.37;12.63;;;;;;;9.45;100.00;100844.64;1712659;83;21478;-59
2022/11/13 00:41:39;;;;;;;15.10;11.13;;;;;;;9.46;100.00;100836.66;1711699;83;21967;-60
2022/11/13 00:44:26;;;;;;;17.53;12.03;;;;;;;9.46;100.00;100836.66;1712311;83;21681;-59
2022/11/13 00:47:13;;;;;;;18.73;11.13;;;;;;;9.43;100.00;100847.87;1711936;83;21236;-60
2022/11/13 00:50:00;;;;;;;19.23;11.47;;;;;;;9.41;100.00;100838.94;1712357;83;21709;-59
2022/11/13 00:52:45;;;;;;;18.43;11.83;;;;;;;9.45;100.00;100836.34;1711802;83;21481;-60
2022/11/13 00:55:31;;;;;;;17.53;11.63;;;;;;;9.47;100.00;100837.46;1712524;83;22415;-59
2022/11/13 00:58:17;;;;;;;18.23;12.50;;;;;;;9.47;100.00;100842.20;1712094;83;21839;-60
2022/11/13 01:01:06;;;;;;;17.83;12.23;;;;;;;9.47;100.00;100842.20;1712453;83;21656;-59
2022/11/13 01:03:52;;;;;;;18.00;11.27;;;;;;;9.45;100.00;100835.53;1708873;82;22066;-60
2022/11/13 01:06:38;;;;;;;16.47;12.20;;;;;;;9.42;100.00;100830.14;1685404;85;21597;-59
2022/11/13 01:09:24;;;;;;;17.37;12.53;;;;;;;9.42;100.00;100830.14;1724410;82;21647;-59
2022/11/13 01:12:10;;;;;;;18.33;12.43;;;;;;;9.44;100.00;100842.52;1724904;83;22138;-58
2022/11/13 01:14:56;;;;;;;15.77;11.90;;;;;;;9.43;100.00;100844.81;1724323;83;21719;-57
2022/11/13 01:17:42;;;;;;;15.93;10.37;;;;;;;9.47;100.00;100853.08;1724835;83;21794;-57
2022/11/13 01:20:28;;;;;;;13.57;9.73;;;;;;;9.49;100.00;100844.14;1724348;83;21643;-59
2022/11/13 01:23:14;;;;;;;14.20;10.47;;;;;;;9.52;100.00;100825.30;1724936;83;21411;-59
2022/11/13 01:26:18;;;;;;;15.27;10.30;;;;;;;9.50;100.00;100826.73;1724375;81;21710;-60
2022/11/13 01:29:06;;;;;;;19.35;10.63;;;;;;;9.50;100.00;100826.73;1724841;83;21631;-59
2022/11/13 01:31:51;;;;;;;13.13;8.57;;;;;;;9.48;100.00;100815.69;1724850;83;21071;-58
2022/11/13 01:34:36;;;;;;;11.20;8.43;;;;;;;9.42;100.00;100802.02;1724904;83;22111;-60
2022/11/13 01:37:22;;;;;;;11.87;8.40;;;;;;;9.42;100.00;100802.02;1724836;81;22463;-59
2022/11/13 01:40:11;;;;;;;13.00;8.40;;;;;;;9.37;100.00;100806.90;1724936;83;22333;-59
2022/11/13 01:42:57;;;;;;;12.07;8.40;;;;;;;9.37;100.00;100806.90;1724698;83;21590;-58
2022/11/13 01:46:01;;;;;;;12.37;8.27;;;;;;;9.37;100.00;100803.81;1724753;83;21428;-57
2022/11/13 01:48:51;;;;;;;10.90;8.13;;;;;;;9.35;100.00;100796.64;1724854;83;22099;-58
2022/11/13 01:51:45;;;;;;;11.45;7.92;;;;;;;9.34;100.00;100797.62;1724417;83;21319;-59
2022/11/13 01:54:34;;;;;;;10.77;7.87;;;;;;;9.32;100.00;100787.04;1724757;83;21272;-59
2022/11/13 01:57:19;;;;;;;14.23;9.33;;;;;;;9.32;100.00;100787.04;1724682;83;22084;-57
2022/11/13 02:00:08;;;;;;;11.47;7.67;;;;;;;9.28;100.00;100789.18;1724652;83;21718;-58
2022/11/13 02:02:54;;;;;;;10.53;7.37;;;;;;;9.32;100.00;100789.18;1724639;83;22525;-59
2022/11/13 02:05:41;;;;;;;11.20;7.63;;;;;;;9.30;100.00;100796.31;1695683;84;21490;-58
2022/11/13 02:08:28;;;;;;;11.33;7.70;;;;;;;9.30;100.00;100792.91;1656380;86;21782;-58
2022/11/13 02:11:14;;;;;;;12.70;7.87;;;;;;;9.27;100.00;100794.03;1695634;82;21352;-58
2022/11/13 02:14:01;;;;;;;11.80;8.73;;;;;;;9.27;100.00;100794.03;1656368;86;21755;-58
2022/11/13 02:16:48;;;;;;;9.90;6.83;;;;;;;9.24;100.00;100796.49;1674405;85;21679;-60
2022/11/13 02:19:37;;;;;;;11.73;7.10;;;;;;;9.20;100.00;100789.95;1669083;82;21560;-58
2022/11/13 02:22:59;;;;;;;11.73;8.17;;;;;;;9.20;100.00;100792.55;1656318;86;21486;-67
2022/11/13 02:25:47;;;;;;;8.43;6.10;;;;;;;9.21;100.00;100794.20;1695428;82;21476;-60
2022/11/13 02:28:33;;;;;;;9.30;6.67;;;;;;;9.23;100.00;100788.34;1656256;86;21809;-58
2022/11/13 02:31:19;;;;;;;9.73;7.47;;;;;;;9.28;100.00;100791.78;1695447;84;21691;-66
2022/11/13 02:34:08;;;;;;;8.83;6.43;;;;;;;9.26;100.00;100796.31;1656423;86;21411;-58
2022/11/13 02:36:55;;;;;;;8.53;5.90;;;;;;;9.24;100.00;100784.78;1694759;82;21470;-60
2022/11/13 02:39:40;;;;;;;9.23;6.00;;;;;;;9.36;100.00;100785.77;1656532;86;22134;-60
2022/11/13 02:42:26;;;;;;;9.37;5.67;;;;;;;9.35;100.00;100785.42;1694965;84;21963;-61
2022/11/13 02:45:13;;;;;;;8.50;6.03;;;;;;;9.35;100.00;100786.72;1656498;86;21765;-60
2022/11/13 02:48:01;;;;;;;8.90;5.80;;;;;;;9.31;100.00;100784.93;1695651;84;22092;-60
2022/11/13 02:50:48;;;;;;;9.60;6.33;;;;;;;9.35;100.00;100786.72;1656274;86;21479;-60
2022/11/13 02:53:33;;;;;;;8.33;5.87;;;;;;;9.34;100.00;100782.01;1695713;84;21590;-60
2022/11/13 02:56:19;;;;;;;7.93;6.10;;;;;;;9.38;100.00;100774.70;1656586;86;21744;-59
2022/11/13 02:59:06;;;;;;;6.10;4.47;;;;;;;9.38;100.00;100774.70;1695642;84;21706;-59
2022/11/13 03:01:52;;;;;;;9.40;6.10;;;;;;;9.40;100.00;100766.25;1656522;86;21703;-59
2022/11/13 03:04:38;;;;;;;6.33;4.73;;;;;;;9.41;100.00;100760.06;1712050;81;22046;-59
2022/11/13 03:07:24;;;;;;;8.97;5.73;;;;;;;9.38;100.00;100758.59;1735193;81;22198;-60
2022/11/13 03:10:11;;;;;;;8.47;5.07;;;;;;;9.40;100.00;100755.35;1735043;82;22319;-59
2022/11/13 03:12:58;;;;;;;6.77;5.13;;;;;;;9.37;100.00;100748.36;1735164;82;21484;-61
2022/11/13 03:15:45;;;;;;;8.00;5.27;;;;;;;9.41;100.00;100754.86;1735233;82;22262;-61
2022/11/13 03:18:30;;;;;;;7.60;4.93;;;;;;;9.41;100.00;100746.56;1735197;82;21649;-60
2022/11/13 03:21:16;;;;;;;5.93;4.53;;;;;;;9.40;100.00;100747.55;1734951;82;21527;-60
2022/11/13 03:24:02;;;;;;;7.63;5.50;;;;;;;9.41;100.00;100749.16;1735085;82;21345;-60
2022/11/13 03:26:47;;;;;;;8.07;5.60;;;;;;;9.41;100.00;100749.16;1735508;82;21767;-61
2022/11/13 03:29:35;;;;;;;6.80;4.90;;;;;;;9.43;100.00;100748.99;1735103;82;21645;-61
2022/11/13 03:32:20;;;;;;;9.00;5.70;;;;;;;9.43;100.00;100738.13;1735134;82;21711;-60
2022/11/13 03:35:08;;;;;;;7.43;5.00;;;;;;;9.43;100.00;100730.31;1735006;82;21699;-60
2022/11/13 03:37:54;;;;;;;7.67;5.53;;;;;;;9.42;100.00;100728.67;1735378;82;22528;-60
2022/11/13 03:40:40;;;;;;;8.27;6.03;;;;;;;9.43;100.00;100729.02;1735057;82;21459;-60
2022/11/13 03:43:27;;;;;;;7.40;5.37;;;;;;;9.42;100.00;100728.67;1715032;82;21767;-60
2022/11/13 03:46:13;;;;;;;6.67;4.77;;;;;;;9.44;100.00;100730.63;1735379;82;22248;-60
2022/11/13 03:48:58;;;;;;;6.57;5.20;;;;;;;9.41;100.00;100717.94;1735278;82;22126;-60
2022/11/13 03:51:44;;;;;;;7.43;4.90;;;;;;;9.40;100.00;100716.33;1735069;82;22288;-60
2022/11/13 03:54:31;;;;;;;6.73;5.00;;;;;;;9.39;100.00;100712.08;1735289;82;21660;-60
2022/11/13 03:57:18;;;;;;;7.37;4.67;;;;;;;9.39;100.00;100709.97;1735031;82;21634;-60
2022/11/13 04:00:05;;;;;;;7.07;4.57;;;;;;;9.37;100.00;100715.34;1734978;82;21608;-61
2022/11/13 04:02:50;;;;;;;8.20;4.63;;;;;;;9.38;100.00;100716.97;1734973;82;21580;-60
2022/11/13 04:05:37;;;;;;;6.43;4.40;;;;;;;9.38;100.00;100716.97;1731994;81;21755;-60
2022/11/13 04:08:22;;;;;;;5.57;4.10;;;;;;;9.37;100.00;100710.14;1730807;82;21643;-61
2022/11/13 04:11:11;;;;;;;5.73;4.30;;;;;;;9.41;100.00;100713.23;1731052;82;22115;-60
2022/11/13 04:13:56;;;;;;;5.77;4.07;;;;;;;9.39;100.00;100703.46;1730930;82;21393;-60
2022/11/13 04:16:44;;;;;;;7.17;3.97;;;;;;;9.41;100.00;100710.63;1730547;82;21301;-60
2022/11/13 04:19:30;;;;;;;6.03;3.73;;;;;;;9.41;100.00;100711.93;1730934;82;21585;-64
2022/11/13 04:22:16;;;;;;;6.17;4.27;;;;;;;9.47;100.00;100716.45;1730819;82;21270;-60
2022/11/13 04:25:02;;;;;;;5.97;4.03;;;;;;;9.47;100.00;100716.45;1730736;82;22477;-61
2022/11/13 04:27:51;;;;;;;7.40;4.53;;;;;;;9.46;100.00;100719.55;1730988;82;21552;-60
2022/11/13 04:30:37;;;;;;;5.20;3.70;;;;;;;9.57;100.00;100721.02;1730252;82;21667;-66
2022/11/13 04:33:22;;;;;;;5.87;4.07;;;;;;;9.57;100.00;100721.02;1730748;82;21735;-59
2022/11/13 04:36:08;;;;;;;5.80;3.93;;;;;;;9.61;100.00;100718.40;1730391;82;21789;-65
2022/11/13 04:38:53;;;;;;;6.90;4.53;;;;;;;9.61;100.00;100718.40;1730903;82;22142;-60
2022/11/13 04:44:44;;;;;;;5.77;3.73;;;;;;;9.67;100.00;100724.26;1730846;82;21576;-59
2022/11/13 04:47:30;;;;;;;5.60;3.43;;;;;;;9.65;100.00;100718.39;1730919;81;22051;-59
2022/11/13 04:50:16;;;;;;;5.53;3.07;;;;;;;9.68;100.00;100733.69;1730886;82;21691;-59
2022/11/13 04:53:01;;;;;;;5.03;3.27;;;;;;;9.72;100.00;100734.98;1730903;82;21753;-61
2022/11/13 04:55:47;;;;;;;5.30;3.27;;;;;;;9.76;100.00;100734.16;1731023;82;22097;-60
2022/11/13 04:58:33;;;;;;;4.60;3.00;;;;;;;9.77;100.00;100733.66;1730866;82;22034;-60
2022/11/13 05:01:18;;;;;;;5.23;3.20;;;;;;;9.86;100.00;100743.10;1730876;82;21544;-60
2022/11/13 05:04:04;;;;;;;4.67;3.37;;;;;;;9.86;100.00;100743.10;1730771;82;22078;-61
2022/11/13 05:06:50;;;;;;;4.43;2.93;;;;;;;9.87;100.00;100741.63;1713167;83;21580;-60
2022/11/13 05:09:35;;;;;;;4.67;3.00;;;;;;;9.90;100.00;100743.09;1713657;83;21344;-61
2022/11/13 05:12:22;;;;;;;4.23;2.77;;;;;;;9.90;100.00;100743.09;1713000;83;21718;-60
2022/11/13 05:15:09;;;;;;;4.90;3.67;;;;;;;9.86;100.00;100745.70;1713234;83;22598;-60
2022/11/13 05:17:55;;;;;;;4.17;2.77;;;;;;;9.86;100.00;100745.70;1713076;83;21485;-59
2022/11/13 05:20:41;;;;;;;5.47;2.80;;;;;;;9.89;100.00;100747.48;1713312;83;22150;-59
2022/11/13 05:23:27;;;;;;;3.83;2.77;;;;;;;9.85;100.00;100743.59;1713078;83;21434;-62
2022/11/13 05:26:13;;;;;;;3.73;2.47;;;;;;;9.94;100.00;100745.68;1713605;83;21750;-61
2022/11/13 05:28:59;;;;;;;4.03;2.77;;;;;;;9.94;100.00;100745.68;1713528;83;21896;-60
2022/11/13 05:31:44;;;;;;;4.67;3.07;;;;;;;9.96;100.00;100748.45;1713268;83;21837;-60
2022/11/13 05:34:30;;;;;;;3.40;2.07;;;;;;;10.01;100.00;100746.64;1713382;83;21567;-60
2022/11/13 05:37:17;;;;;;;4.93;2.70;;;;;;;10.01;100.00;100746.64;1713354;83;22467;-59
2022/11/13 05:40:03;;;;;;;3.53;2.10;;;;;;;10.07;100.00;100753.77;1713052;83;21627;-61
2022/11/13 05:42:50;;;;;;;4.23;2.47;;;;;;;10.15;100.00;100760.28;1713445;83;21794;-59
2022/11/13 05:45:37;;;;;;;5.67;3.53;;;;;;;10.23;100.00;100755.53;1713333;83;21680;-61
2022/11/13 05:48:22;;;;;;;4.53;2.90;;;;;;;10.28;100.00;100759.77;1713368;83;21705;-59
2022/11/13 05:51:17;;;;;;;3.20;2.10;;;;;;;10.37;100.00;100759.23;1713325;83;21603;-66
2022/11/13 05:54:03;;;;;;;4.10;2.13;;;;;;;10.46;100.00;100752.53;1713366;83;22217;-59
2022/11/13 05:56:49;;;;;;;3.20;1.87;;;;;;;10.46;100.00;100752.53;1712863;83;21450;-59
2022/11/13 05:59:36;;;;;;;4.10;1.97;;;;;;;10.52;100.00;100747.12;1713331;83;21671;-60
2022/11/13 06:02:21;;;;;;;3.57;2.03;;;;;;;10.57;100.00;100747.44;1713415;83;22119;-59
2022/11/13 06:05:08;;;;;;;4.70;2.50;;;;;;;10.62;100.00;100752.14;1717514;82;22542;-60
2022/11/13 06:07:53;;;;;;;3.50;2.00;;;;;;;10.68;100.00;100754.88;1734641;81;21737;-59
2022/11/13 06:10:40;;;;;;;3.50;2.07;;;;;;;10.71;100.00;100745.38;1735329;82;22129;-59
2022/11/13 06:13:25;;;;;;;4.73;1.93;;;;;;;10.79;100.00;100750.23;1735230;82;21582;-59
2022/11/13 06:16:19;;;;;;;4.33;1.80;;;;;;;10.85;100.00;100761.30;1734827;82;20918;-58
2022/11/13 06:19:07;;;;;;;2.80;1.60;;;;;;;10.92;100.00;100751.80;1734837;82;21825;-58
2022/11/13 06:21:53;;;;;;;2.73;1.57;;;;;;;10.97;100.00;100748.17;1734589;82;21009;-61
2022/11/13 06:24:39;;;;;;;2.47;1.60;;;;;;;11.02;100.00;100748.45;1734959;82;21431;-58
2022/11/13 06:27:24;;;;;;;3.33;1.30;;;;;;;11.12;100.00;100747.73;1734800;82;20989;-60
2022/11/13 06:30:13;;;;;;;3.13;1.83;;;;;;;11.16;100.00;100748.20;1734883;82;20934;-58
2022/11/13 06:32:58;;;;;;;2.70;1.50;;;;;;;11.25;100.00;100748.48;1734670;82;22411;-61
2022/11/13 06:35:45;;;;;;;3.73;2.00;;;;;;;11.29;100.00;100758.04;1735168;82;20899;-59
2022/11/13 06:38:36;;;;;;;4.10;1.67;;;;;;;11.37;100.00;100754.89;1734657;82;20999;-60
2022/11/13 06:41:25;;;;;;;3.20;1.70;;;;;;;11.49;100.00;100754.47;1735211;82;20867;-59
2022/11/13 06:44:11;;;;;;;3.93;1.70;;;;;;;11.56;100.00;100744.45;1735057;82;21092;-58
2022/11/13 06:46:56;;;;;;;2.90;1.60;;;;;;;11.66;100.00;100743.68;1735166;82;21091;-62
2022/11/13 06:49:42;;;;;;;2.73;1.50;;;;;;;11.69;100.00;100739.41;1735321;82;21965;-58
2022/11/13 06:52:28;;;;;;;2.33;1.30;;;;;;;11.74;100.00;100741.48;1735362;82;20863;-59
2022/11/13 06:55:13;;;;;;;2.43;1.30;;;;;;;11.81;100.00;100743.70;1735335;82;21009;-58
2022/11/13 06:57:59;;;;;;;3.13;1.53;;;;;;;11.90;100.00;100736.14;1735101;82;20863;-59
2022/11/13 07:00:45;;;;;;;2.73;1.40;;;;;;;11.92;100.00;100741.18;1735013;82;21359;-60
2022/11/13 07:03:30;;;;;;;3.43;1.37;;;;;;;12.00;100.00;100737.66;1735215;82;21397;-60
2022/11/13 07:06:18;;;;;;;2.77;1.27;;;;;;;12.05;100.00;100729.62;1740707;81;21083;-59
2022/11/13 07:09:04;;;;;;;1.87;0.93;;;;;;;12.10;100.00;100728.56;1753436;81;20949;-59
2022/11/13 07:11:50;;;;;;;3.10;1.10;;;;;;;12.18;100.00;100725.85;1753458;81;21051;-58
2022/11/13 07:14:35;;;;;;;3.73;1.53;;;;;;;12.26;100.00;100724.14;1753645;81;21198;-59
2022/11/13 07:17:21;;;;;;;2.37;1.20;;;;;;;12.38;100.00;100712.20;1753631;81;21043;-58
2022/11/13 07:20:09;;;;;;;2.33;1.10;;;;;;;12.49;100.00;100718.77;1753691;81;20906;-60
2022/11/13 07:22:56;;;;;;;1.80;1.00;;;;;;;12.55;100.00;100723.28;1753668;81;21346;-58
2022/11/13 07:25:42;;;;;;;2.60;1.17;;;;;;;12.64;100.00;100730.01;1753618;81;21011;-58
2022/11/13 07:28:32;;;;;;;2.10;1.10;;;;;;;12.72;100.00;100720.73;1753745;81;21154;-59
2022/11/13 07:31:17;;;;;;;1.90;1.00;;;;;;;12.80;100.00;100723.23;1753858;81;21549;-60
2022/11/13 07:34:03;;;;;;;2.07;1.00;;;;;;;12.86;100.00;100708.10;1753494;81;21492;-59
2022/11/13 07:36:49;;;;;;;1.80;0.90;;;;;;;12.95;100.00;100710.59;1753590;81;20964;-59
2022/11/13 07:39:35;;;;;;;1.80;0.83;;;;;;;13.01;100.00;100713.78;1753736;81;21648;-58
2022/11/13 07:42:22;;;;;;;2.00;1.10;;;;;;;13.04;100.00;100718.64;1753909;81;21876;-59
2022/11/13 07:45:08;;;;;;;2.50;1.00;;;;;;;13.04;100.00;100712.10;1753571;81;21058;-59
2022/11/13 07:48:00;;;;;;;2.57;1.20;;;;;;;13.04;100.00;100704.25;1753514;81;20984;-58
2022/11/13 07:50:46;;;;;;;1.63;0.80;;;;;;;13.03;100.00;100696.90;1753665;81;20933;-59
2022/11/13 07:53:32;;;;;;;1.87;0.80;;;;;;;13.05;100.00;100701.94;1753708;81;20858;-59
2022/11/13 07:56:17;;;;;;;1.93;0.80;;;;;;;13.12;100.00;100687.09;1753874;81;21904;-61
2022/11/13 07:59:03;;;;;;;2.27;1.20;;;;;;;13.14;100.00;100702.10;1753501;81;21020;-60
2022/11/13 08:01:49;;;;;;;2.90;1.20;;;;;;;13.28;100.00;100692.08;1753557;81;21039;-59
2022/11/13 08:04:35;;;;;;;1.70;0.80;;;;;;;13.35;100.00;100694.25;1753579;81;21031;-60
2022/11/13 08:07:22;;;;;;;2.67;0.90;;;;;;;13.35;100.00;100690.33;1753590;81;21492;-59
2022/11/13 08:10:09;;;;;;;2.40;0.97;;;;;;;13.46;100.00;100692.13;1797383;79;21152;-67
2022/11/13 08:13:04;;;;;;;1.70;0.70;;;;;;;13.68;100.00;100693.68;1797336;79;20958;-58
2022/11/13 08:15:49;;;;;;;2.23;0.87;;;;;;;13.88;100.00;100680.17;1796503;79;20975;-58
2022/11/13 08:18:36;;;;;;;1.30;0.70;;;;;;;14.24;100.00;100688.28;1797152;79;21010;-58
2022/11/13 08:21:22;;;;;;;4.00;1.40;;;;;;;14.56;100.00;100675.51;1796592;79;20991;-59
2022/11/13 08:24:09;;;;;;;3.80;1.03;;;;;;;15.05;100.00;100663.85;1797293;79;21157;-63
2022/11/13 08:26:56;;;;;;;1.80;0.80;;;;;;;15.41;100.00;100662.09;1796834;79;21433;-60
2022/11/13 08:29:42;;;;;;;2.03;1.10;;;;;;;15.74;100.00;100659.42;1797087;79;20978;-60
2022/11/13 08:32:27;;;;;;;2.17;0.80;;;;;;;16.09;100.00;100663.03;1796661;79;20974;-67
2022/11/13 08:35:13;;;;;;;1.90;1.10;;;;;;;16.32;100.00;100660.39;1797545;79;20954;-58
2022/11/13 08:38:05;;;;;;;1.87;0.90;;;;;;;16.36;100.00;100652.38;1797137;79;21151;-67
2022/11/13 08:40:51;;;;;;;1.80;0.80;;;;;;;16.35;100.00;100650.26;1797175;79;20900;-59
2022/11/13 08:43:38;;;;;;;2.30;1.10;;;;;;;16.50;100.00;100642.88;1796588;79;20888;-65
2022/11/13 08:46:24;;;;;;;1.90;1.10;;;;;;;16.83;100.00;100639.25;1797271;79;21066;-59
2022/11/13 08:49:10;;;;;;;3.00;0.80;;;;;;;17.00;100.00;100635.55;1796740;79;20987;-59
2022/11/13 08:51:55;;;;;;;1.63;1.00;;;;;;;16.98;100.00;100646.31;1797335;79;22225;-59
2022/11/13 08:54:41;;;;;;;2.37;1.10;;;;;;;16.73;100.00;100650.24;1796537;79;20923;-59
2022/11/13 08:57:26;;;;;;;2.40;1.20;;;;;;;16.63;100.00;100643.80;1797329;79;20911;-59
2022/11/13 09:00:14;;;;;;;4.40;1.47;;;;;;;16.54;100.00;100638.80;1796787;79;20932;-59
2022/11/13 09:03:00;;;;;;;2.40;1.30;;;;;;;16.54;100.00;100640.63;1797303;79;20943;-59
2022/11/13 09:05:45;;;;;;;2.80;1.17;;;;;;;16.30;100.00;100638.26;1794143;79;22320;-59
2022/11/13 09:08:32;;;;;;;2.00;1.20;;;;;;;16.26;100.00;100643.13;1771284;80;20896;-59
2022/11/13 09:11:18;;;;;;;3.00;1.53;;;;;;;16.61;100.00;100649.30;1771009;81;21533;-59
2022/11/13 09:14:03;;;;;;;4.20;1.97;;;;;;;17.10;100.00;100627.97;1771446;81;20900;-57
2022/11/13 09:16:49;;;;;;;3.20;1.60;;;;;;;17.32;100.00;100627.06;1770895;80;20932;-63
2022/11/13 09:19:35;;;;;;;4.17;1.70;;;;;;;17.36;100.00;100624.80;1771236;81;21161;-59
2022/11/13 09:22:21;;;;;;;2.50;1.20;;;;;;;17.45;100.00;100614.25;1770916;80;20873;-66
2022/11/13 09:25:08;;;;;;;2.43;1.07;;;;;;;17.78;100.00;100613.11;1771341;80;21439;-58
2022/11/13 09:27:55;;;;;;;2.03;0.90;;;;;;;18.04;100.00;100604.86;1771081;81;20975;-61
2022/11/13 09:30:41;;;;;;;2.37;1.03;;;;;;;18.18;100.00;100606.29;1771607;81;21537;-58
2022/11/13 09:33:27;;;;;;;1.93;1.00;;;;;;;18.23;96.18;100601.13;1771230;80;21505;-58
2022/11/13 09:36:14;;;;;;;1.77;1.00;;;;;;;18.27;94.28;100601.48;1771334;81;21048;-58
2022/11/13 09:39:00;;;;;;;2.03;1.10;;;;;;;18.30;95.91;100610.80;1770919;81;20892;-58
2022/11/13 09:42:21;;;;;;;2.63;1.33;;;;;;;18.42;94.63;100611.63;1771410;80;21005;-57
2022/11/13 09:45:11;;;;;;;2.80;1.30;;;;;;;18.68;89.20;100605.94;1771718;80;20936;-58
2022/11/13 09:48:03;;;;;;;3.23;1.30;;;;;;;18.68;89.20;100605.94;1770971;81;21586;-58
2022/11/13 09:50:48;;;;;;;2.00;0.93;;;;;;;18.77;84.61;100605.11;1771451;80;20959;-57
2022/11/13 09:53:35;;;;;;;2.73;1.30;;;;;;;18.65;81.12;100599.79;1771814;81;21789;-57
2022/11/13 09:56:34;;;;;;;2.73;1.30;;;;;;;18.57;85.99;100593.53;1771285;81;20969;-60
2022/11/13 09:59:36;;;;;;;2.57;1.20;;;;;;;18.65;86.41;100608.23;1771216;81;20921;-58
2022/11/13 10:02:47;;;;;;;3.23;1.10;;;;;;;18.75;82.01;100585.23;1771515;81;21249;-57
2022/11/13 10:05:40;;;;;;;2.43;1.20;;;;;;;18.73;80.35;100597.88;1771173;80;20917;-57
2022/11/13 10:08:51;;;;;;;3.13;1.70;;;;;;;18.56;79.67;100593.25;1771406;80;20881;-58
2022/11/13 10:11:44;;;;;;;2.30;1.20;;;;;;;18.43;78.78;100599.52;1771351;81;21439;-57
2022/11/13 10:14:41;;;;;;;2.33;1.13;;;;;;;18.34;81.09;100582.93;1771211;81;21077;-58
2022/11/13 10:17:53;;;;;;;4.30;1.30;;;;;;;18.24;80.95;100592.18;1771736;81;21501;-67
2022/11/13 10:20:48;;;;;;;2.67;1.25;;;;;;;18.14;80.84;100590.59;1771499;80;20976;-60
2022/11/13 10:23:36;;;;;;;1.67;1.10;;;;;;;18.15;86.06;100584.31;1771494;81;20967;-59
2022/11/13 10:26:24;;;;;;;2.13;0.97;;;;;;;18.33;83.64;100579.98;1770393;80;20971;-61
2022/11/13 10:29:17;;;;;;;2.30;0.93;;;;;;;18.32;79.95;100587.61;1771390;81;21451;-59
2022/11/13 10:32:28;;;;;;;2.43;0.97;;;;;;;18.12;78.01;100586.07;1771168;81;21891;-59
2022/11/13 10:35:40;;;;;;;3.27;0.73;;;;;;;18.04;80.61;100580.31;1770632;80;21471;-60
2022/11/13 10:38:43;;;;;;;3.47;1.60;;;;;;;17.91;82.43;100573.37;1771001;81;20940;-61
2022/11/13 10:41:29;;;;;;;2.93;1.63;;;;;;;17.79;85.10;100568.56;1771080;81;21011;-59
2022/11/13 10:44:34;;;;;;;2.50;1.00;;;;;;;17.74;86.66;100580.55;1771512;81;21058;-58
2022/11/13 10:47:22;;;;;;;2.13;1.20;;;;;;;17.65;85.98;100576.63;1762897;81;21209;-62
2022/11/13 10:50:28;;;;;;;3.70;2.00;;;;;;;17.52;87.05;100572.81;1771247;81;21007;-58
2022/11/13 10:53:16;;;;;;;5.63;2.83;;;;;;;17.39;90.48;100569.03;1771467;81;21420;-58
2022/11/13 10:56:04;;;;;;;2.93;1.80;;;;;;;17.29;94.54;100561.63;1771528;81;21510;-58
2022/11/13 10:59:16;;;;;;;3.77;1.67;;;;;;;17.36;96.15;100565.51;1771446;81;21823;-59
2022/11/13 11:02:18;;;;;;;3.67;1.33;;;;;;;17.35;95.63;100560.75;1771606;81;21455;-59
2022/11/13 11:05:09;;;;;;;2.67;1.10;;;;;;;17.28;95.95;100557.38;1770786;81;21477;-63
2022/11/13 11:07:55;;;;;;;1.57;0.93;;;;;;;17.25;96.66;100563.89;1761113;80;20926;-58
2022/11/13 11:12:14;;;;;;;2.07;0.90;;;;;;;17.18;96.05;100566.30;1755807;81;20984;-58
2022/11/13 11:13:28;;;;;;;2.00;0.90;;;;;;;17.05;98.32;100575.16;1756557;81;21095;-58
2022/11/13 11:16:19;;;;;;;2.53;0.80;;;;;;;17.02;98.72;100565.05;1756308;81;21749;-57
2022/11/13 11:19:09;;;;;;;2.98;1.40;;;;;;;16.96;100.00;100561.95;1756559;81;21048;-58
2022/11/13 11:22:01;;;;;;;2.83;1.27;;;;;;;16.96;98.65;100560.64;1733538;81;28538;-59
2022/11/13 11:24:57;;;;;;;3.08;1.30;;;;;;;16.87;99.01;100557.48;1756671;81;20954;-69
2022/11/13 11:27:47;;;;;;;2.17;1.13;;;;;;;16.81;100.00;100539.11;1756724;81;20933;-58
2022/11/13 11:30:48;;;;;;;2.80;1.17;;;;;;;16.76;100.00;100554.25;1756201;81;21270;-60
2022/11/13 11:33:37;;;;;;;3.47;1.10;;;;;;;16.57;100.00;100537.58;1756665;81;21412;-59
2022/11/13 11:36:31;;;;;;;2.63;1.07;;;;;;;16.42;100.00;100541.84;1756612;81;20898;-59
2022/11/13 11:39:55;;;;;;;2.90;1.20;;;;;;;16.46;100.00;100532.49;1755967;81;20914;-60
2022/11/13 11:42:51;;;;;;;3.27;1.57;;;;;;;16.29;100.00;100540.12;1756193;81;21011;-59
2022/11/13 11:45:42;;;;;;;3.77;1.57;;;;;;;16.28;100.00;100533.23;1756683;81;21716;-59
2022/11/13 11:48:30;;;;;;;3.52;1.55;;;;;;;16.20;100.00;100541.38;1756696;81;21044;-58
2022/11/13 11:51:31;;;;;;;2.83;1.33;;;;;;;16.13;100.00;100539.30;1756808;81;20890;-58
2022/11/13 11:54:44;;;;;;;2.80;1.30;;;;;;;16.08;100.00;100539.66;1756685;81;20989;-59
2022/11/13 11:58:02;;;;;;;2.97;1.40;;;;;;;16.01;100.00;100538.37;1756703;81;20941;-58
2022/11/13 12:00:51;;;;;;;3.73;1.50;;;;;;;15.87;100.00;100534.20;1756528;81;20992;-58
2022/11/13 12:03:47;;;;;;;4.27;2.00;;;;;;;15.80;100.00;100525.06;1755771;81;21053;-59
2022/11/13 12:06:57;;;;;;;3.13;1.70;;;;;;;15.81;100.00;100512.20;1756566;81;20854;-58
2022/11/13 12:10:15;;;;;;;3.80;1.60;;;;;;;15.78;100.00;100521.82;1797105;79;21004;-59
2022/11/13 12:13:21;;;;;;;3.33;1.57;;;;;;;15.65;100.00;100524.02;1762647;81;21009;-59
2022/11/13 12:16:21;;;;;;;4.47;2.53;;;;;;;15.52;100.00;100525.35;1762410;81;21477;-59
2022/11/13 12:19:27;;;;;;;3.93;1.50;;;;;;;15.48;100.00;100517.08;1761819;81;20976;-59
2022/11/13 12:22:38;;;;;;;3.17;1.57;;;;;;;15.46;100.00;100528.83;1762475;81;20937;-70
2022/11/13 12:25:57;;;;;;;2.90;1.60;;;;;;;15.44;100.00;100527.70;1762369;81;20989;-57
2022/11/13 12:29:00;;;;;;;3.60;2.20;;;;;;;15.46;100.00;100530.95;1745235;81;20917;-59
2022/11/13 12:32:03;;;;;;;3.87;1.43;;;;;;;15.38;100.00;100532.98;1762453;81;21266;-57
2022/11/13 12:34:53;;;;;;;2.27;1.40;;;;;;;15.26;100.00;100527.56;1762822;81;20928;-57
2022/11/13 12:37:56;;;;;;;2.60;1.40;;;;;;;15.11;100.00;100520.44;1762529;81;20905;-58
2022/11/13 12:41:11;;;;;;;2.27;1.30;;;;;;;14.93;100.00;100525.04;1762276;81;21130;-58
2022/11/13 12:44:10;;;;;;;2.87;1.40;;;;;;;14.74;100.00;100520.92;1762727;81;21438;-57
2022/11/13 12:46:59;;;;;;;3.03;1.70;;;;;;;14.67;100.00;100525.37;1762559;81;21126;-57
2022/11/13 12:49:44;;;;;;;3.63;1.87;;;;;;;14.56;100.00;100527.29;1762517;81;20941;-58
2022/11/13 12:52:30;;;;;;;3.43;1.53;;;;;;;14.49;100.00;100512.02;1762473;81;21027;-57
2022/11/13 12:55:27;;;;;;;3.87;1.67;;;;;;;14.33;100.00;100524.53;1762632;81;21099;-58
2022/11/13 12:58:24;;;;;;;3.10;1.50;;;;;;;14.22;100.00;100519.88;1762615;81;20889;-58
2022/11/13 13:01:13;;;;;;;6.40;1.93;;;;;;;14.08;100.00;100532.15;1762106;81;21695;-58
2022/11/13 13:04:50;;;;;;;3.57;2.10;;;;;;;13.92;100.00;100525.17;1737078;81;20933;-58
2022/11/13 13:08:08;;;;;;;3.23;1.60;;;;;;;13.85;100.00;100530.39;1760507;81;21020;-67